sensor_id;sensor_type;location;lat;lon;timestamp;P1;durP1;ratioP1;P2;durP2;ratioP2
28003;SDS011;15330;51.234;6.754;2022-07-01T00:01:35;11.93;;;9.98;;
28003;SDS011;15330;51.234;6.754;2022-07-01T00:04:01;11.02;;;8.52;;
28003;SDS011;15330;51.234;6.754;2022-07-01T00:06:27;13.48;;;8.27;;
28003;SDS011;15330;51.234;6.754;2022-07-01T00:08:52;12.23;;;8.82;;
28003;SDS011;15330;51.234;6.754;2022-07-01T00:11:18;11.45;;;9.38;;
28003;SDS011;15330;51.234;6.754;2022-07-01T00:13:43;9.48;;;7.88;;
28003;SDS011;15330;51.234;6.754;2022-07-01T00:16:08;10.10;;;8.23;;
28003;SDS011;15330;51.234;6.754;2022-07-01T00:18:34;11.82;;;8.77;;
28003;SDS011;15330;51.234;6.754;2022-07-01T00:20:59;11.68;;;8.10;;
28003;SDS011;15330;51.234;6.754;2022-07-01T00:23:27;10.18;;;7.88;;
28003;SDS011;15330;51.234;6.754;2022-07-01T00:25:53;9.98;;;7.22;;
28003;SDS011;15330;51.234;6.754;2022-07-01T00:28:19;9.18;;;6.75;;
28003;SDS011;15330;51.234;6.754;2022-07-01T00:30:44;11.57;;;7.63;;
28003;SDS011;15330;51.234;6.754;2022-07-01T00:33:10;11.55;;;7.78;;
28003;SDS011;15330;51.234;6.754;2022-07-01T00:35:36;10.05;;;7.22;;
28003;SDS011;15330;51.234;6.754;2022-07-01T00:38:01;11.40;;;7.97;;
28003;SDS011;15330;51.234;6.754;2022-07-01T00:40:26;9.98;;;7.10;;
28003;SDS011;15330;51.234;6.754;2022-07-01T00:42:52;11.68;;;7.25;;
28003;SDS011;15330;51.234;6.754;2022-07-01T00:45:18;12.35;;;7.68;;
28003;SDS011;15330;51.234;6.754;2022-07-01T00:47:44;11.95;;;7.60;;
28003;SDS011;15330;51.234;6.754;2022-07-01T00:50:11;16.30;;;8.32;;
28003;SDS011;15330;51.234;6.754;2022-07-01T00:52:39;10.10;;;7.22;;
28003;SDS011;15330;51.234;6.754;2022-07-01T00:55:06;15.15;;;7.28;;
28003;SDS011;15330;51.234;6.754;2022-07-01T00:57:34;12.75;;;7.03;;
28003;SDS011;15330;51.234;6.754;2022-07-01T01:00:05;13.80;;;7.00;;
28003;SDS011;15330;51.234;6.754;2022-07-01T01:02:32;11.82;;;7.18;;
28003;SDS011;15330;51.234;6.754;2022-07-01T01:04:58;12.10;;;6.65;;
28003;SDS011;15330;51.234;6.754;2022-07-01T01:07:23;11.27;;;6.28;;
28003;SDS011;15330;51.234;6.754;2022-07-01T01:09:50;9.63;;;7.03;;
28003;SDS011;15330;51.234;6.754;2022-07-01T01:12:16;10.82;;;6.45;;
28003;SDS011;15330;51.234;6.754;2022-07-01T01:17:13;13.55;;;7.05;;
28003;SDS011;15330;51.234;6.754;2022-07-01T01:19:40;12.98;;;6.22;;
28003;SDS011;15330;51.234;6.754;2022-07-01T01:22:06;10.38;;;6.05;;
28003;SDS011;15330;51.234;6.754;2022-07-01T01:24:32;13.05;;;6.78;;
28003;SDS011;15330;51.234;6.754;2022-07-01T01:26:57;15.10;;;8.05;;
28003;SDS011;15330;51.234;6.754;2022-07-01T01:29:23;13.45;;;9.52;;
28003;SDS011;15330;51.234;6.754;2022-07-01T01:31:48;18.90;;;10.18;;
28003;SDS011;15330;51.234;6.754;2022-07-01T01:34:13;15.50;;;10.75;;
28003;SDS011;15330;51.234;6.754;2022-07-01T01:36:39;20.38;;;11.13;;
28003;SDS011;15330;51.234;6.754;2022-07-01T01:39:04;19.10;;;11.00;;
28003;SDS011;15330;51.234;6.754;2022-07-01T01:41:36;18.05;;;11.02;;
28003;SDS011;15330;51.234;6.754;2022-07-01T01:44:01;17.10;;;11.18;;
28003;SDS011;15330;51.234;6.754;2022-07-01T01:46:26;20.05;;;11.50;;
28003;SDS011;15330;51.234;6.754;2022-07-01T01:48:54;21.25;;;11.70;;
28003;SDS011;15330;51.234;6.754;2022-07-01T01:51:19;20.70;;;10.80;;
28003;SDS011;15330;51.234;6.754;2022-07-01T01:53:45;19.92;;;11.50;;
28003;SDS011;15330;51.234;6.754;2022-07-01T01:56:10;24.77;;;12.43;;
28003;SDS011;15330;51.234;6.754;2022-07-01T01:58:35;22.30;;;12.07;;
28003;SDS011;15330;51.234;6.754;2022-07-01T02:01:01;24.15;;;11.63;;
28003;SDS011;15330;51.234;6.754;2022-07-01T02:03:27;19.98;;;11.63;;
28003;SDS011;15330;51.234;6.754;2022-07-01T02:05:53;18.55;;;11.52;;
28003;SDS011;15330;51.234;6.754;2022-07-01T02:08:19;18.92;;;11.07;;
28003;SDS011;15330;51.234;6.754;2022-07-01T02:10:44;22.77;;;12.15;;
28003;SDS011;15330;51.234;6.754;2022-07-01T02:13:10;16.65;;;10.30;;
28003;SDS011;15330;51.234;6.754;2022-07-01T02:15:35;23.40;;;11.57;;
28003;SDS011;15330;51.234;6.754;2022-07-01T02:18:01;16.80;;;10.32;;
28003;SDS011;15330;51.234;6.754;2022-07-01T02:20:26;16.15;;;10.00;;
28003;SDS011;15330;51.234;6.754;2022-07-01T02:22:51;18.23;;;10.55;;
28003;SDS011;15330;51.234;6.754;2022-07-01T02:25:17;17.05;;;9.55;;
28003;SDS011;15330;51.234;6.754;2022-07-01T02:27:43;18.08;;;11.13;;
28003;SDS011;15330;51.234;6.754;2022-07-01T02:30:08;19.42;;;10.93;;
28003;SDS011;15330;51.234;6.754;2022-07-01T02:32:34;19.98;;;11.85;;
28003;SDS011;15330;51.234;6.754;2022-07-01T02:34:59;21.70;;;11.50;;
28003;SDS011;15330;51.234;6.754;2022-07-01T02:37:25;16.55;;;10.50;;
28003;SDS011;15330;51.234;6.754;2022-07-01T02:39:50;20.10;;;12.32;;
28003;SDS011;15330;51.234;6.754;2022-07-01T02:42:15;20.75;;;14.05;;
28003;SDS011;15330;51.234;6.754;2022-07-01T02:44:56;27.75;;;14.07;;
28003;SDS011;15330;51.234;6.754;2022-07-01T02:47:22;26.45;;;14.45;;
28003;SDS011;15330;51.234;6.754;2022-07-01T02:49:48;21.00;;;14.02;;
28003;SDS011;15330;51.234;6.754;2022-07-01T02:52:13;26.70;;;17.55;;
28003;SDS011;15330;51.234;6.754;2022-07-01T02:54:40;28.42;;;18.02;;
28003;SDS011;15330;51.234;6.754;2022-07-01T02:57:06;30.67;;;18.73;;
28003;SDS011;15330;51.234;6.754;2022-07-01T02:59:31;27.58;;;18.30;;
28003;SDS011;15330;51.234;6.754;2022-07-01T03:01:56;22.48;;;16.00;;
28003;SDS011;15330;51.234;6.754;2022-07-01T03:04:22;28.92;;;16.98;;
28003;SDS011;15330;51.234;6.754;2022-07-01T03:06:47;27.77;;;17.33;;
28003;SDS011;15330;51.234;6.754;2022-07-01T03:09:13;24.27;;;15.02;;
28003;SDS011;15330;51.234;6.754;2022-07-01T03:11:38;17.58;;;10.77;;
28003;SDS011;15330;51.234;6.754;2022-07-01T03:14:03;17.42;;;9.48;;
28003;SDS011;15330;51.234;6.754;2022-07-01T03:16:29;16.50;;;9.32;;
28003;SDS011;15330;51.234;6.754;2022-07-01T03:18:54;14.35;;;9.32;;
28003;SDS011;15330;51.234;6.754;2022-07-01T03:21:19;18.58;;;10.02;;
28003;SDS011;15330;51.234;6.754;2022-07-01T03:23:45;12.32;;;7.97;;
28003;SDS011;15330;51.234;6.754;2022-07-01T03:26:10;13.27;;;7.88;;
28003;SDS011;15330;51.234;6.754;2022-07-01T03:28:35;13.75;;;8.10;;
28003;SDS011;15330;51.234;6.754;2022-07-01T03:31:01;15.45;;;7.53;;
28003;SDS011;15330;51.234;6.754;2022-07-01T03:33:26;17.08;;;7.32;;
28003;SDS011;15330;51.234;6.754;2022-07-01T03:35:53;14.27;;;8.02;;
28003;SDS011;15330;51.234;6.754;2022-07-01T03:38:18;13.63;;;7.07;;
28003;SDS011;15330;51.234;6.754;2022-07-01T03:40:44;14.50;;;8.38;;
28003;SDS011;15330;51.234;6.754;2022-07-01T03:43:09;14.15;;;8.20;;
28003;SDS011;15330;51.234;6.754;2022-07-01T03:45:35;16.65;;;7.90;;
28003;SDS011;15330;51.234;6.754;2022-07-01T03:48:00;13.13;;;7.50;;
28003;SDS011;15330;51.234;6.754;2022-07-01T03:50:27;13.75;;;6.70;;
28003;SDS011;15330;51.234;6.754;2022-07-01T03:52:53;11.57;;;7.10;;
28003;SDS011;15330;51.234;6.754;2022-07-01T03:55:38;12.25;;;5.95;;
28003;SDS011;15330;51.234;6.754;2022-07-01T03:58:03;17.05;;;6.95;;
28003;SDS011;15330;51.234;6.754;2022-07-01T04:00:30;10.25;;;6.30;;
28003;SDS011;15330;51.234;6.754;2022-07-01T04:02:59;9.95;;;5.97;;
28003;SDS011;15330;51.234;6.754;2022-07-01T04:05:25;10.80;;;5.97;;
28003;SDS011;15330;51.234;6.754;2022-07-01T04:07:50;11.15;;;6.38;;
28003;SDS011;15330;51.234;6.754;2022-07-01T04:10:16;10.90;;;6.07;;
28003;SDS011;15330;51.234;6.754;2022-07-01T04:12:41;9.00;;;5.78;;
28003;SDS011;15330;51.234;6.754;2022-07-01T04:15:08;11.48;;;5.75;;
28003;SDS011;15330;51.234;6.754;2022-07-01T04:17:33;11.00;;;5.43;;
28003;SDS011;15330;51.234;6.754;2022-07-01T04:19:59;11.25;;;5.35;;
28003;SDS011;15330;51.234;6.754;2022-07-01T04:22:24;11.25;;;5.22;;
28003;SDS011;15330;51.234;6.754;2022-07-01T04:25:00;11.02;;;5.15;;
28003;SDS011;15330;51.234;6.754;2022-07-01T04:27:29;8.88;;;4.78;;
28003;SDS011;15330;51.234;6.754;2022-07-01T04:29:55;10.73;;;5.38;;
28003;SDS011;15330;51.234;6.754;2022-07-01T04:32:20;14.07;;;5.13;;
28003;SDS011;15330;51.234;6.754;2022-07-01T04:34:45;8.32;;;4.35;;
28003;SDS011;15330;51.234;6.754;2022-07-01T04:37:11;15.48;;;5.10;;
28003;SDS011;15330;51.234;6.754;2022-07-01T04:39:37;13.30;;;5.60;;
28003;SDS011;15330;51.234;6.754;2022-07-01T04:42:03;13.68;;;5.43;;
28003;SDS011;15330;51.234;6.754;2022-07-01T04:44:30;9.50;;;4.63;;
28003;SDS011;15330;51.234;6.754;2022-07-01T04:46:57;14.63;;;5.32;;
28003;SDS011;15330;51.234;6.754;2022-07-01T04:49:23;12.73;;;4.82;;
28003;SDS011;15330;51.234;6.754;2022-07-01T04:51:49;11.50;;;5.78;;
28003;SDS011;15330;51.234;6.754;2022-07-01T04:54:14;12.60;;;5.43;;
28003;SDS011;15330;51.234;6.754;2022-07-01T04:56:40;14.00;;;4.75;;
28003;SDS011;15330;51.234;6.754;2022-07-01T04:59:05;9.15;;;4.28;;
28003;SDS011;15330;51.234;6.754;2022-07-01T05:01:31;12.30;;;3.80;;
28003;SDS011;15330;51.234;6.754;2022-07-01T05:03:57;11.30;;;5.38;;
28003;SDS011;15330;51.234;6.754;2022-07-01T05:06:23;8.98;;;5.60;;
28003;SDS011;15330;51.234;6.754;2022-07-01T05:08:49;12.75;;;5.45;;
28003;SDS011;15330;51.234;6.754;2022-07-01T05:11:14;11.13;;;6.15;;
28003;SDS011;15330;51.234;6.754;2022-07-01T05:13:40;15.55;;;8.10;;
28003;SDS011;15330;51.234;6.754;2022-07-01T05:16:05;16.63;;;11.27;;
28003;SDS011;15330;51.234;6.754;2022-07-01T05:18:31;20.23;;;12.98;;
28003;SDS011;15330;51.234;6.754;2022-07-01T05:21:16;24.73;;;12.02;;
28003;SDS011;15330;51.234;6.754;2022-07-01T05:24:00;20.25;;;11.43;;
28003;SDS011;15330;51.234;6.754;2022-07-01T05:26:25;18.92;;;10.70;;
28003;SDS011;15330;51.234;6.754;2022-07-01T05:28:51;11.55;;;7.72;;
28003;SDS011;15330;51.234;6.754;2022-07-01T05:31:18;15.70;;;7.50;;
28003;SDS011;15330;51.234;6.754;2022-07-01T05:33:43;16.08;;;7.60;;
28003;SDS011;15330;51.234;6.754;2022-07-01T05:36:09;16.60;;;8.25;;
28003;SDS011;15330;51.234;6.754;2022-07-01T05:38:35;16.00;;;9.18;;
28003;SDS011;15330;51.234;6.754;2022-07-01T05:41:01;19.38;;;8.05;;
28003;SDS011;15330;51.234;6.754;2022-07-01T05:43:26;10.82;;;6.13;;
28003;SDS011;15330;51.234;6.754;2022-07-01T05:45:51;11.05;;;5.30;;
28003;SDS011;15330;51.234;6.754;2022-07-01T05:48:17;8.65;;;5.38;;
28003;SDS011;15330;51.234;6.754;2022-07-01T05:50:42;13.50;;;6.50;;
28003;SDS011;15330;51.234;6.754;2022-07-01T05:53:10;12.18;;;5.78;;
28003;SDS011;15330;51.234;6.754;2022-07-01T05:55:36;12.50;;;6.38;;
28003;SDS011;15330;51.234;6.754;2022-07-01T05:58:01;19.23;;;6.57;;
28003;SDS011;15330;51.234;6.754;2022-07-01T06:00:27;12.35;;;5.78;;
28003;SDS011;15330;51.234;6.754;2022-07-01T06:02:53;13.70;;;6.57;;
28003;SDS011;15330;51.234;6.754;2022-07-01T06:05:19;12.10;;;6.35;;
28003;SDS011;15330;51.234;6.754;2022-07-01T06:07:44;16.35;;;6.35;;
28003;SDS011;15330;51.234;6.754;2022-07-01T06:10:10;12.82;;;6.80;;
28003;SDS011;15330;51.234;6.754;2022-07-01T06:12:36;13.95;;;6.28;;
28003;SDS011;15330;51.234;6.754;2022-07-01T06:15:02;17.98;;;6.60;;
28003;SDS011;15330;51.234;6.754;2022-07-01T06:17:28;13.32;;;6.68;;
28003;SDS011;15330;51.234;6.754;2022-07-01T06:19:54;10.43;;;6.10;;
28003;SDS011;15330;51.234;6.754;2022-07-01T06:22:19;18.15;;;7.03;;
28003;SDS011;15330;51.234;6.754;2022-07-01T06:24:46;10.95;;;6.72;;
28003;SDS011;15330;51.234;6.754;2022-07-01T06:27:12;10.73;;;7.30;;
28003;SDS011;15330;51.234;6.754;2022-07-01T06:29:37;17.60;;;6.80;;
28003;SDS011;15330;51.234;6.754;2022-07-01T06:32:03;12.32;;;7.55;;
28003;SDS011;15330;51.234;6.754;2022-07-01T06:34:29;14.35;;;7.20;;
28003;SDS011;15330;51.234;6.754;2022-07-01T06:36:55;13.55;;;7.03;;
28003;SDS011;15330;51.234;6.754;2022-07-01T06:39:21;9.65;;;6.40;;
28003;SDS011;15330;51.234;6.754;2022-07-01T06:41:46;15.05;;;6.57;;
28003;SDS011;15330;51.234;6.754;2022-07-01T06:44:11;12.65;;;6.78;;
28003;SDS011;15330;51.234;6.754;2022-07-01T06:46:37;9.57;;;6.55;;
28003;SDS011;15330;51.234;6.754;2022-07-01T06:49:03;15.70;;;6.68;;
28003;SDS011;15330;51.234;6.754;2022-07-01T06:51:29;12.52;;;6.47;;
28003;SDS011;15330;51.234;6.754;2022-07-01T06:53:54;12.38;;;6.97;;
28003;SDS011;15330;51.234;6.754;2022-07-01T06:56:19;7.90;;;6.05;;
28003;SDS011;15330;51.234;6.754;2022-07-01T06:58:45;9.45;;;6.18;;
28003;SDS011;15330;51.234;6.754;2022-07-01T07:01:11;10.82;;;5.80;;
28003;SDS011;15330;51.234;6.754;2022-07-01T07:03:36;11.30;;;6.22;;
28003;SDS011;15330;51.234;6.754;2022-07-01T07:06:03;8.65;;;5.70;;
28003;SDS011;15330;51.234;6.754;2022-07-01T07:08:29;12.02;;;5.80;;
28003;SDS011;15330;51.234;6.754;2022-07-01T07:10:55;11.20;;;6.93;;
28003;SDS011;15330;51.234;6.754;2022-07-01T07:13:21;10.27;;;6.53;;
28003;SDS011;15330;51.234;6.754;2022-07-01T07:15:47;10.45;;;6.25;;
28003;SDS011;15330;51.234;6.754;2022-07-01T07:18:12;9.07;;;5.85;;
28003;SDS011;15330;51.234;6.754;2022-07-01T07:20:38;15.77;;;6.60;;
28003;SDS011;15330;51.234;6.754;2022-07-01T07:23:03;15.82;;;6.40;;
28003;SDS011;15330;51.234;6.754;2022-07-01T07:25:29;8.27;;;5.60;;
28003;SDS011;15330;51.234;6.754;2022-07-01T07:27:54;11.20;;;5.28;;
28003;SDS011;15330;51.234;6.754;2022-07-01T07:30:20;8.73;;;5.82;;
28003;SDS011;15330;51.234;6.754;2022-07-01T07:32:45;10.82;;;5.53;;
28003;SDS011;15330;51.234;6.754;2022-07-01T07:35:11;8.40;;;5.85;;
28003;SDS011;15330;51.234;6.754;2022-07-01T07:37:37;10.13;;;5.82;;
28003;SDS011;15330;51.234;6.754;2022-07-01T07:40:03;10.50;;;5.60;;
28003;SDS011;15330;51.234;6.754;2022-07-01T07:42:31;8.23;;;5.68;;
28003;SDS011;15330;51.234;6.754;2022-07-01T07:44:57;9.82;;;5.90;;
28003;SDS011;15330;51.234;6.754;2022-07-01T07:47:23;10.80;;;5.43;;
28003;SDS011;15330;51.234;6.754;2022-07-01T07:49:48;9.30;;;7.13;;
28003;SDS011;15330;51.234;6.754;2022-07-01T07:52:13;10.93;;;5.30;;
28003;SDS011;15330;51.234;6.754;2022-07-01T07:54:39;12.82;;;4.80;;
28003;SDS011;15330;51.234;6.754;2022-07-01T07:57:04;16.17;;;11.63;;
28003;SDS011;15330;51.234;6.754;2022-07-01T07:59:30;13.10;;;8.40;;
28003;SDS011;15330;51.234;6.754;2022-07-01T08:01:56;10.63;;;4.88;;
28003;SDS011;15330;51.234;6.754;2022-07-01T08:04:21;8.95;;;4.82;;
28003;SDS011;15330;51.234;6.754;2022-07-01T08:06:47;7.88;;;5.63;;
28003;SDS011;15330;51.234;6.754;2022-07-01T08:09:12;10.02;;;5.90;;
28003;SDS011;15330;51.234;6.754;2022-07-01T08:11:37;8.30;;;5.75;;
28003;SDS011;15330;51.234;6.754;2022-07-01T08:14:03;13.68;;;7.32;;
28003;SDS011;15330;51.234;6.754;2022-07-01T08:16:29;9.07;;;5.15;;
28003;SDS011;15330;51.234;6.754;2022-07-01T08:18:54;11.43;;;5.15;;
28003;SDS011;15330;51.234;6.754;2022-07-01T08:21:20;15.43;;;10.15;;
28003;SDS011;15330;51.234;6.754;2022-07-01T08:23:46;15.60;;;7.35;;
28003;SDS011;15330;51.234;6.754;2022-07-01T08:26:11;10.75;;;6.90;;
28003;SDS011;15330;51.234;6.754;2022-07-01T08:28:39;9.82;;;6.10;;
28003;SDS011;15330;51.234;6.754;2022-07-01T08:31:04;12.60;;;5.70;;
28003;SDS011;15330;51.234;6.754;2022-07-01T08:33:29;7.50;;;4.40;;
28003;SDS011;15330;51.234;6.754;2022-07-01T08:35:55;8.38;;;3.92;;
28003;SDS011;15330;51.234;6.754;2022-07-01T08:38:20;6.13;;;4.20;;
28003;SDS011;15330;51.234;6.754;2022-07-01T08:40:46;5.88;;;3.90;;
28003;SDS011;15330;51.234;6.754;2022-07-01T08:43:11;9.95;;;4.07;;
28003;SDS011;15330;51.234;6.754;2022-07-01T08:45:36;10.48;;;4.15;;
28003;SDS011;15330;51.234;6.754;2022-07-01T08:48:02;6.57;;;3.60;;
28003;SDS011;15330;51.234;6.754;2022-07-01T08:50:38;6.50;;;3.70;;
28003;SDS011;15330;51.234;6.754;2022-07-01T08:53:06;8.18;;;3.53;;
28003;SDS011;15330;51.234;6.754;2022-07-01T08:55:33;5.38;;;3.40;;
28003;SDS011;15330;51.234;6.754;2022-07-01T08:58:19;9.38;;;4.18;;
28003;SDS011;15330;51.234;6.754;2022-07-01T09:00:45;7.93;;;3.60;;
28003;SDS011;15330;51.234;6.754;2022-07-01T09:03:11;6.35;;;2.78;;
28003;SDS011;15330;51.234;6.754;2022-07-01T09:05:36;6.32;;;3.20;;
28003;SDS011;15330;51.234;6.754;2022-07-01T09:08:03;6.50;;;3.28;;
28003;SDS011;15330;51.234;6.754;2022-07-01T09:10:32;9.73;;;3.55;;
28003;SDS011;15330;51.234;6.754;2022-07-01T09:13:08;6.88;;;2.33;;
28003;SDS011;15330;51.234;6.754;2022-07-01T09:15:35;6.90;;;2.53;;
28003;SDS011;15330;51.234;6.754;2022-07-01T09:20:37;5.28;;;2.50;;
28003;SDS011;15330;51.234;6.754;2022-07-01T09:23:15;5.82;;;2.40;;
28003;SDS011;15330;51.234;6.754;2022-07-01T09:25:46;4.97;;;2.15;;
28003;SDS011;15330;51.234;6.754;2022-07-01T09:28:17;7.28;;;1.92;;
28003;SDS011;15330;51.234;6.754;2022-07-01T09:30:46;6.18;;;2.22;;
28003;SDS011;15330;51.234;6.754;2022-07-01T09:33:15;5.90;;;2.47;;
28003;SDS011;15330;51.234;6.754;2022-07-01T09:35:42;3.78;;;2.65;;
28003;SDS011;15330;51.234;6.754;2022-07-01T09:38:10;5.13;;;2.10;;
28003;SDS011;15330;51.234;6.754;2022-07-01T09:43:29;6.15;;;2.10;;
28003;SDS011;15330;51.234;6.754;2022-07-01T09:48:25;4.25;;;1.98;;
28003;SDS011;15330;51.234;6.754;2022-07-01T09:51:12;3.63;;;2.08;;
28003;SDS011;15330;51.234;6.754;2022-07-01T09:53:40;4.82;;;2.00;;
28003;SDS011;15330;51.234;6.754;2022-07-01T09:56:06;7.90;;;2.25;;
28003;SDS011;15330;51.234;6.754;2022-07-01T09:58:31;6.10;;;2.55;;
28003;SDS011;15330;51.234;6.754;2022-07-01T10:00:57;7.88;;;2.58;;
28003;SDS011;15330;51.234;6.754;2022-07-01T10:03:23;6.78;;;2.20;;
28003;SDS011;15330;51.234;6.754;2022-07-01T10:05:53;4.20;;;2.10;;
28003;SDS011;15330;51.234;6.754;2022-07-01T10:13:47;5.32;;;2.00;;
28003;SDS011;15330;51.234;6.754;2022-07-01T10:16:13;5.35;;;1.60;;
28003;SDS011;15330;51.234;6.754;2022-07-01T10:18:39;3.10;;;1.63;;
28003;SDS011;15330;51.234;6.754;2022-07-01T10:21:06;3.97;;;1.42;;
28003;SDS011;15330;51.234;6.754;2022-07-01T10:23:39;5.95;;;2.15;;
28003;SDS011;15330;51.234;6.754;2022-07-01T10:26:06;2.30;;;1.48;;
28003;SDS011;15330;51.234;6.754;2022-07-01T10:31:08;3.83;;;1.58;;
28003;SDS011;15330;51.234;6.754;2022-07-01T10:44:05;4.32;;;1.65;;
28003;SDS011;15330;51.234;6.754;2022-07-01T10:46:43;6.10;;;1.80;;
28003;SDS011;15330;51.234;6.754;2022-07-01T10:49:15;3.80;;;1.70;;
28003;SDS011;15330;51.234;6.754;2022-07-01T10:59:42;7.43;;;1.48;;
28003;SDS011;15330;51.234;6.754;2022-07-01T11:02:11;5.15;;;1.70;;
28003;SDS011;15330;51.234;6.754;2022-07-01T11:04:39;4.40;;;1.30;;
28003;SDS011;15330;51.234;6.754;2022-07-01T11:07:04;3.33;;;1.58;;
28003;SDS011;15330;51.234;6.754;2022-07-01T11:09:29;3.58;;;1.38;;
28003;SDS011;15330;51.234;6.754;2022-07-01T11:11:55;2.47;;;1.40;;
28003;SDS011;15330;51.234;6.754;2022-07-01T11:14:22;2.80;;;1.17;;
28003;SDS011;15330;51.234;6.754;2022-07-01T11:16:47;3.60;;;1.10;;
28003;SDS011;15330;51.234;6.754;2022-07-01T11:19:13;3.10;;;1.20;;
28003;SDS011;15330;51.234;6.754;2022-07-01T11:21:48;3.55;;;1.00;;
28003;SDS011;15330;51.234;6.754;2022-07-01T11:24:14;3.55;;;1.40;;
28003;SDS011;15330;51.234;6.754;2022-07-01T11:26:41;5.18;;;2.13;;
28003;SDS011;15330;51.234;6.754;2022-07-01T11:29:09;2.20;;;1.15;;
28003;SDS011;15330;51.234;6.754;2022-07-01T11:31:37;5.35;;;1.38;;
28003;SDS011;15330;51.234;6.754;2022-07-01T11:34:03;2.97;;;1.13;;
28003;SDS011;15330;51.234;6.754;2022-07-01T11:36:29;1.38;;;1.00;;
28003;SDS011;15330;51.234;6.754;2022-07-01T11:39:13;1.60;;;0.95;;
28003;SDS011;15330;51.234;6.754;2022-07-01T11:41:55;2.42;;;0.90;;
28003;SDS011;15330;51.234;6.754;2022-07-01T11:47:23;2.35;;;1.38;;
28003;SDS011;15330;51.234;6.754;2022-07-01T11:49:50;3.40;;;1.65;;
28003;SDS011;15330;51.234;6.754;2022-07-01T11:52:16;3.70;;;1.48;;
28003;SDS011;15330;51.234;6.754;2022-07-01T11:54:48;4.18;;;1.10;;
28003;SDS011;15330;51.234;6.754;2022-07-01T11:57:18;4.32;;;1.08;;
28003;SDS011;15330;51.234;6.754;2022-07-01T11:59:47;2.13;;;1.10;;
28003;SDS011;15330;51.234;6.754;2022-07-01T12:02:16;1.77;;;1.00;;
28003;SDS011;15330;51.234;6.754;2022-07-01T12:04:43;7.47;;;1.30;;
28003;SDS011;15330;51.234;6.754;2022-07-01T12:07:10;3.53;;;1.10;;
28003;SDS011;15330;51.234;6.754;2022-07-01T12:09:38;2.08;;;0.77;;
28003;SDS011;15330;51.234;6.754;2022-07-01T12:12:03;1.20;;;0.77;;
28003;SDS011;15330;51.234;6.754;2022-07-01T12:14:30;2.95;;;1.02;;
28003;SDS011;15330;51.234;6.754;2022-07-01T12:16:59;2.50;;;1.13;;
28003;SDS011;15330;51.234;6.754;2022-07-01T12:19:47;3.45;;;1.45;;
28003;SDS011;15330;51.234;6.754;2022-07-01T12:22:33;2.03;;;1.20;;
28003;SDS011;15330;51.234;6.754;2022-07-01T12:25:11;4.97;;;1.67;;
28003;SDS011;15330;51.234;6.754;2022-07-01T12:27:40;2.63;;;1.13;;
28003;SDS011;15330;51.234;6.754;2022-07-01T12:30:09;5.05;;;0.93;;
28003;SDS011;15330;51.234;6.754;2022-07-01T12:32:36;2.60;;;1.15;;
28003;SDS011;15330;51.234;6.754;2022-07-01T12:35:06;1.95;;;1.08;;
28003;SDS011;15330;51.234;6.754;2022-07-01T12:37:52;4.20;;;1.17;;
28003;SDS011;15330;51.234;6.754;2022-07-01T12:40:24;3.78;;;1.50;;
28003;SDS011;15330;51.234;6.754;2022-07-01T12:42:54;3.47;;;1.70;;
28003;SDS011;15330;51.234;6.754;2022-07-01T12:45:23;2.85;;;1.15;;
28003;SDS011;15330;51.234;6.754;2022-07-01T12:47:59;2.85;;;1.13;;
28003;SDS011;15330;51.234;6.754;2022-07-01T12:50:28;1.15;;;0.63;;
28003;SDS011;15330;51.234;6.754;2022-07-01T12:55:26;2.88;;;0.85;;
28003;SDS011;15330;51.234;6.754;2022-07-01T12:57:54;2.58;;;0.88;;
28003;SDS011;15330;51.234;6.754;2022-07-01T13:00:21;3.42;;;0.80;;
28003;SDS011;15330;51.234;6.754;2022-07-01T13:02:51;5.90;;;0.95;;
28003;SDS011;15330;51.234;6.754;2022-07-01T13:07:47;4.57;;;1.00;;
28003;SDS011;15330;51.234;6.754;2022-07-01T13:10:14;4.80;;;0.93;;
28003;SDS011;15330;51.234;6.754;2022-07-01T13:12:40;2.33;;;0.85;;
28003;SDS011;15330;51.234;6.754;2022-07-01T13:15:06;1.67;;;0.80;;
28003;SDS011;15330;51.234;6.754;2022-07-01T13:17:32;4.93;;;1.10;;
28003;SDS011;15330;51.234;6.754;2022-07-01T13:19:57;4.25;;;1.45;;
28003;SDS011;15330;51.234;6.754;2022-07-01T13:22:23;2.20;;;1.25;;
28003;SDS011;15330;51.234;6.754;2022-07-01T13:24:48;1.65;;;0.80;;
28003;SDS011;15330;51.234;6.754;2022-07-01T13:27:14;3.10;;;0.90;;
28003;SDS011;15330;51.234;6.754;2022-07-01T13:29:39;2.33;;;0.75;;
28003;SDS011;15330;51.234;6.754;2022-07-01T13:32:04;2.75;;;0.88;;
28003;SDS011;15330;51.234;6.754;2022-07-01T13:34:32;3.08;;;0.80;;
28003;SDS011;15330;51.234;6.754;2022-07-01T13:36:58;1.73;;;0.80;;
28003;SDS011;15330;51.234;6.754;2022-07-01T13:39:23;2.28;;;0.70;;
28003;SDS011;15330;51.234;6.754;2022-07-01T13:41:49;3.13;;;1.35;;
28003;SDS011;15330;51.234;6.754;2022-07-01T13:44:14;2.60;;;0.98;;
28003;SDS011;15330;51.234;6.754;2022-07-01T13:46:40;4.88;;;0.88;;
28003;SDS011;15330;51.234;6.754;2022-07-01T13:49:06;4.88;;;1.52;;
28003;SDS011;15330;51.234;6.754;2022-07-01T13:51:32;4.50;;;1.52;;
28003;SDS011;15330;51.234;6.754;2022-07-01T13:53:57;3.38;;;1.17;;
28003;SDS011;15330;51.234;6.754;2022-07-01T13:56:24;1.55;;;0.80;;
28003;SDS011;15330;51.234;6.754;2022-07-01T13:58:50;1.58;;;1.08;;
28003;SDS011;15330;51.234;6.754;2022-07-01T14:01:16;1.48;;;0.70;;
28003;SDS011;15330;51.234;6.754;2022-07-01T14:03:42;5.03;;;1.10;;
28003;SDS011;15330;51.234;6.754;2022-07-01T14:06:08;3.40;;;1.10;;
28003;SDS011;15330;51.234;6.754;2022-07-01T14:08:33;2.67;;;1.42;;
28003;SDS011;15330;51.234;6.754;2022-07-01T14:10:58;3.40;;;1.00;;
28003;SDS011;15330;51.234;6.754;2022-07-01T14:13:24;3.08;;;0.85;;
28003;SDS011;15330;51.234;6.754;2022-07-01T14:15:50;2.42;;;1.38;;
28003;SDS011;15330;51.234;6.754;2022-07-01T14:18:15;3.10;;;0.80;;
28003;SDS011;15330;51.234;6.754;2022-07-01T14:20:41;2.17;;;0.80;;
28003;SDS011;15330;51.234;6.754;2022-07-01T14:23:07;2.72;;;0.73;;
28003;SDS011;15330;51.234;6.754;2022-07-01T14:25:32;2.30;;;0.57;;
28003;SDS011;15330;51.234;6.754;2022-07-01T14:27:58;1.23;;;0.70;;
28003;SDS011;15330;51.234;6.754;2022-07-01T14:30:23;2.15;;;0.77;;
28003;SDS011;15330;51.234;6.754;2022-07-01T14:32:48;5.50;;;0.82;;
28003;SDS011;15330;51.234;6.754;2022-07-01T14:35:14;2.22;;;1.00;;
28003;SDS011;15330;51.234;6.754;2022-07-01T14:37:39;2.05;;;1.00;;
28003;SDS011;15330;51.234;6.754;2022-07-01T14:40:07;5.95;;;0.73;;
28003;SDS011;15330;51.234;6.754;2022-07-01T14:42:33;3.13;;;1.10;;
28003;SDS011;15330;51.234;6.754;2022-07-01T14:44:59;2.85;;;1.10;;
28003;SDS011;15330;51.234;6.754;2022-07-01T14:47:25;5.13;;;1.40;;
28003;SDS011;15330;51.234;6.754;2022-07-01T14:49:50;4.72;;;1.10;;
28003;SDS011;15330;51.234;6.754;2022-07-01T14:52:16;1.67;;;0.60;;
28003;SDS011;15330;51.234;6.754;2022-07-01T14:54:45;5.75;;;1.38;;
28003;SDS011;15330;51.234;6.754;2022-07-01T14:57:10;4.88;;;1.50;;
28003;SDS011;15330;51.234;6.754;2022-07-01T14:59:36;3.67;;;2.08;;
28003;SDS011;15330;51.234;6.754;2022-07-01T15:02:02;4.50;;;1.23;;
28003;SDS011;15330;51.234;6.754;2022-07-01T15:04:31;2.78;;;1.13;;
28003;SDS011;15330;51.234;6.754;2022-07-01T15:06:58;2.95;;;1.10;;
28003;SDS011;15330;51.234;6.754;2022-07-01T15:09:24;3.38;;;0.90;;
28003;SDS011;15330;51.234;6.754;2022-07-01T15:11:49;3.42;;;1.00;;
28003;SDS011;15330;51.234;6.754;2022-07-01T15:14:16;4.32;;;1.77;;
28003;SDS011;15330;51.234;6.754;2022-07-01T15:16:42;3.67;;;1.20;;
28003;SDS011;15330;51.234;6.754;2022-07-01T15:19:08;3.45;;;1.17;;
28003;SDS011;15330;51.234;6.754;2022-07-01T15:21:34;4.82;;;0.88;;